Porfirio, Texas
Current Conditions -  °F | °C
As of 8:15 AM on Monday 20 Oct 2014 (Local Time) from KEBG Reporting Station
Scattered Clouds Scattered Clouds  
Wind Chill: 69°   Ceiling: Unl
Heat Index: 69°   Visibility: 10mi
Dew Point: 66°   Wind: 3mph
Humidity: 91%   Direction: 10°N
Pressure: 29.95"   Gusts: NA
Location:  26.5112°N, 97.8502°W
Report Text: KEBG 201315Z AUTO 01003KT 10SM SCT080 21/19 A2995 RMK AO2 T02060190
Loading
Personal Weather Stations






























Interactive Weather Map
Tropical Storm Tracking
New forecast layout! Learn more

10-Day Weather Forecast

Advertisements
Track Severe Weather on mobile